EST,Max TemperatureF,Mean TemperatureF,Min TemperatureF,Max Dew PointF,MeanDew PointF,Min DewpointF,Max Humidity, Mean Humidity, Min Humidity, Max Sea Level PressureIn, Mean Sea Level PressureIn, Min Sea Level PressureIn, Max VisibilityMiles, Mean VisibilityMiles, Min VisibilityMiles, Max Wind SpeedMPH, Mean Wind SpeedMPH, Max Gust SpeedMPH,PrecipitationIn, CloudCover, Events, WindDirDegrees
2012-11-1,61,49,37,32,25,16,73,40,24,29.90,29.84,29.79,10,10,10,16,6,21,0.00,0,,280
2012-11-2,68,56,44,39,30,19,58,40,27,29.99,29.90,29.84,10,10,10,21,6,43,0.00,3,,265
2012-11-3,70,53,36,40,34,29,82,51,26,30.11,30.03,29.99,10,10,10,8,2,,0.00,0,,201
2012-11-4,62,54,45,45,40,35,77,58,43,30.02,29.98,29.94,10,10,7,7,2,,0.00,3,,44
2012-11-5,60,48,38,39,34,32,87,58,36,30.09,30.04,29.99,10,10,10,9,3,,0.00,2,,89
2012-11-6,46,42,39,36,34,30,85,73,54,30.12,30.04,29.95,10,10,7,9,4,,0.00,7,Rain,33
2012-11-7,50,44,37,42,38,35,99,84,68,29.99,29.92,29.86,10,9,2,5,0,,0.00,6,,267
2012-11-8,64,50,36,35,27,18,85,49,18,30.17,30.08,29.98,10,10,10,12,5,18,0.00,0,,343
2012-11-9,68,50,31,34,30,26,89,55,24,30.28,30.22,30.17,10,10,10,6,2,,0.00,0,,322
2012-11-10,72,52,32,36,33,30,96,56,23,30.38,30.31,30.26,10,10,10,9,2,,0.00,0,,206
2012-11-11,69,51,33,50,41,32,94,66,39,30.48,30.41,30.37,10,10,10,13,2,20,0.00,3,,178
2012-11-12,66,60,55,60,56,51,99,87,72,30.39,30.28,30.18,10,8,3,9,3,18,0.33,8,Rain,181
2012-11-13,60,50,40,54,35,26,95,58,29,30.39,30.30,30.21,10,10,5,10,5,,0.02,3,Rain,12
2012-11-14,51,40,30,31,29,27,87,62,44,30.49,30.40,30.34,10,10,10,7,3,,0.00,2,,26
2012-11-15,53,42,32,34,32,30,96,70,45,30.34,30.30,30.23,10,10,5,10,2,,0.04,3,Rain,27
2012-11-16,59,44,29,36,31,28,96,67,32,30.39,30.31,30.26,10,10,7,6,1,,0.00,0,,84
2012-11-17,59,46,33,32,27,22,86,51,26,30.49,30.44,30.38,10,10,10,10,4,,0.00,0,,19
2012-11-18,59,50,42,41,34,23,67,55,44,30.47,30.42,30.36,10,10,7,16,8,22,0.00,6,,13
2012-11-19,61,52,44,48,44,36,97,72,60,30.37,30.29,30.21,10,10,10,14,6,20,0.00,6,,28
2012-11-20,62,50,38,46,42,38,99,77,47,30.21,30.14,30.06,10,10,5,5,1,,0.00,2,,279
2012-11-21,65,49,33,40,35,31,96,66,32,30.19,30.14,30.09,10,10,10,7,2,,0.00,0,,214
2012-11-22,65,48,32,36,32,31,94,61,28,30.28,30.22,30.17,10,10,7,6,1,,0.00,0,,317
2012-11-23,66,48,30,45,34,28,96,61,32,30.18,30.05,29.93,10,10,10,21,3,28,0.00,1,,270
2012-11-24,52,40,29,29,23,17,80,50,28,30.12,30.05,29.99,10,10,10,9,2,,0.00,0,,332
2012-11-25,53,38,22,22,20,17,86,53,25,30.17,30.09,30.02,10,10,10,9,3,12,0.00,0,,188
2012-11-26,65,46,27,31,25,22,83,48,23,30.20,30.14,30.08,10,10,10,12,2,16,0.00,1,,172
2012-11-27,56,49,42,43,38,31,87,65,50,30.23,30.14,30.10,10,10,10,9,1,,0.00,8,Rain,74
2012-11-28,56,46,35,42,32,20,80,57,32,30.38,30.31,30.22,10,10,10,7,1,,0.00,3,,27
2012-11-29,57,42,27,38,30,21,92,67,42,30.46,30.39,30.34,10,10,10,9,2,,0.00,0,,184
2012-11-30,62,45,28,41,35,27,99,75,40,30.39,30.33,30.26,10,9,5,14,2,18,0.00,0,,188